createdAt,value
2023-03-04T00:00:46.208Z,6.48
2023-03-04T00:05:50.481Z,6.46
2023-03-04T00:10:53.913Z,6.47
2023-03-04T00:15:56.778Z,6.32
2023-03-04T00:21:01.052Z,6.39
2023-03-04T00:26:03.943Z,6.39
2023-03-04T00:31:07.046Z,6.39
2023-03-04T00:36:11.807Z,6.39
2023-03-04T00:41:14.749Z,6.36
2023-03-04T00:46:17.888Z,6.35
2023-03-04T00:51:22.155Z,6.32
2023-03-04T00:56:25.033Z,6.30
2023-03-04T01:01:27.978Z,6.27
2023-03-04T01:06:32.159Z,6.33
2023-03-04T01:11:35.263Z,6.33
2023-03-04T01:16:38.206Z,6.27
2023-03-04T01:21:42.463Z,6.32
2023-03-04T01:26:45.482Z,6.28
2023-03-04T01:31:48.426Z,6.27
2023-03-04T01:36:52.740Z,6.25
2023-03-04T01:41:55.848Z,6.20
2023-03-04T01:46:58.851Z,6.22
2023-03-04T01:52:03.208Z,6.22
2023-03-04T01:57:10.619Z,6.22
2023-03-04T02:02:13.936Z,6.23
2023-03-04T02:07:18.190Z,6.23
2023-03-04T02:12:21.187Z,6.23
2023-03-04T02:17:26.203Z,6.17
2023-03-04T02:22:30.444Z,6.22
2023-03-04T02:27:34.665Z,6.27
2023-03-04T02:32:37.753Z,6.29
2023-03-04T02:37:40.672Z,6.28
2023-03-04T02:42:46.516Z,6.28
2023-03-04T02:47:49.447Z,6.30
2023-03-04T02:52:53.066Z,6.28
2023-03-04T02:57:57.381Z,6.30
2023-03-04T03:03:00.728Z,6.28
2023-03-04T03:08:03.742Z,6.29
2023-03-04T03:13:08.630Z,6.30
2023-03-04T03:18:12.094Z,6.26
2023-03-04T03:23:14.991Z,6.25
2023-03-04T03:28:19.263Z,6.23
2023-03-04T03:33:22.194Z,6.23
2023-03-04T03:38:25.240Z,6.27
2023-03-04T03:43:29.447Z,6.23
2023-03-04T03:48:32.329Z,6.23
2023-03-04T03:53:35.148Z,6.27
2023-03-04T03:58:39.320Z,6.30
2023-03-04T04:03:42.294Z,6.31
2023-03-04T04:08:45.180Z,6.29
2023-03-04T04:13:49.548Z,6.25
2023-03-04T04:18:52.355Z,6.26
2023-03-04T04:23:55.142Z,6.25
2023-03-04T04:28:59.409Z,6.24
2023-03-04T04:34:02.325Z,6.22
2023-03-04T04:39:05.524Z,6.16
2023-03-04T04:44:10.489Z,6.16
2023-03-04T04:49:13.287Z,6.15
2023-03-04T04:54:16.217Z,6.14
2023-03-04T04:59:20.351Z,6.13
2023-03-04T05:04:23.148Z,6.14
2023-03-04T05:09:25.974Z,6.14
2023-03-04T05:14:30.191Z,6.20
2023-03-04T05:19:32.939Z,6.21
2023-03-04T05:24:35.888Z,6.27
2023-03-04T05:29:40.089Z,6.23
2023-03-04T05:34:42.930Z,6.31
2023-03-04T05:39:45.747Z,6.30
2023-03-04T05:44:49.953Z,6.30
2023-03-04T05:49:52.694Z,6.24
2023-03-04T05:54:55.562Z,6.18
2023-03-04T05:59:59.858Z,6.20
2023-03-04T06:05:02.823Z,6.12
2023-03-04T06:10:06.698Z,5.92
2023-03-04T06:15:11.648Z,5.78
2023-03-04T06:20:14.669Z,5.77
2023-03-04T06:25:17.716Z,5.82
2023-03-04T06:30:22.245Z,5.84
2023-03-04T06:35:25.155Z,5.90
2023-03-04T06:40:28.288Z,5.95
2023-03-04T06:45:32.529Z,6.00
2023-03-04T06:50:35.530Z,6.02
2023-03-04T06:55:38.451Z,6.10
2023-03-04T07:00:42.831Z,6.03
2023-03-04T07:05:45.796Z,5.97
2023-03-04T07:10:48.849Z,6.02
2023-03-04T07:15:54.285Z,6.25
2023-03-04T07:20:57.418Z,6.65
2023-03-04T07:26:00.231Z,6.80
2023-03-04T07:31:12.095Z,6.96
2023-03-04T07:36:15.865Z,7.06
2023-03-04T07:41:19.619Z,7.13
2023-03-04T07:46:23.785Z,7.00
2023-03-04T07:51:27.937Z,7.29
2023-03-04T07:56:32.408Z,7.38
2023-03-04T08:01:38.179Z,7.45
2023-03-04T08:06:41.664Z,7.52
2023-03-04T08:11:44.776Z,7.53
2023-03-04T08:16:48.943Z,7.40
2023-03-04T08:21:51.827Z,7.56
2023-03-04T08:26:54.776Z,7.98
2023-03-04T08:31:59.621Z,8.21
2023-03-04T08:37:02.528Z,8.31
2023-03-04T08:42:05.409Z,8.47
2023-03-04T08:47:10.359Z,8.75
2023-03-04T08:52:13.302Z,8.80
2023-03-04T08:57:16.217Z,8.85
2023-03-04T09:02:20.473Z,9.17
2023-03-04T09:07:23.377Z,9.20
2023-03-04T09:12:26.234Z,9.04
2023-03-04T09:17:30.555Z,9.17
2023-03-04T09:22:33.430Z,9.05
2023-03-04T09:27:36.416Z,8.96
2023-03-04T09:32:41.430Z,8.78
2023-03-04T09:37:44.639Z,8.78
2023-03-04T09:42:49.256Z,8.92
2023-03-04T09:47:54.620Z,8.93
2023-03-04T09:53:07.701Z,9.25
2023-03-04T09:58:18.119Z,9.47
2023-03-04T10:03:25.861Z,9.25
2023-03-04T10:08:36.270Z,8.84
2023-03-04T10:13:43.226Z,8.70
2023-03-04T10:18:50.753Z,8.71
2023-03-04T10:23:54.618Z,8.91
2023-03-04T10:28:57.578Z,8.64
2023-03-04T10:34:02.026Z,8.78
2023-03-04T10:39:09.031Z,9.51
2023-03-04T10:44:18.376Z,9.23
2023-03-04T10:49:24.809Z,8.82
2023-03-04T10:54:29.438Z,8.73
2023-03-04T10:59:46.199Z,8.89
2023-03-04T11:04:56.775Z,9.47
2023-03-04T11:10:09.461Z,9.11
2023-03-04T11:15:20.525Z,8.64
2023-03-04T11:20:32.200Z,8.58
2023-03-04T11:25:36.840Z,8.68
2023-03-04T11:30:43.461Z,8.90
2023-03-04T11:35:54.244Z,9.30
2023-03-04T11:41:02.336Z,9.80
2023-03-04T11:46:36.679Z,9.66
2023-03-04T11:51:44.413Z,9.49
2023-03-04T11:56:49.558Z,9.42
2023-03-04T12:02:01.261Z,9.26
2023-03-04T12:07:13.462Z,9.07
2023-03-04T12:12:28.366Z,9.03
2023-03-04T12:18:09.849Z,9.03
2023-03-04T12:23:26.070Z,8.96
2023-03-04T12:28:42.188Z,8.95
2023-03-04T12:33:54.443Z,8.98
2023-03-04T12:39:10.681Z,9.02
2023-03-04T12:44:20.333Z,9.19
2023-03-04T12:49:35.532Z,9.42
2023-03-04T12:54:41.681Z,9.41
2023-03-04T12:59:51.139Z,9.48
2023-03-04T13:05:00.711Z,9.56
2023-03-04T13:10:10.835Z,9.45
2023-03-04T13:15:20.040Z,9.33
2023-03-04T13:20:35.485Z,9.29
2023-03-04T13:25:44.091Z,9.21
2023-03-04T13:31:09.398Z,9.27
2023-03-04T13:36:48.841Z,8.93
2023-03-04T13:41:54.352Z,8.62
2023-03-04T13:46:57.211Z,8.64
2023-03-04T13:52:00.268Z,8.66
2023-03-04T13:57:19.059Z,8.64
2023-03-04T14:02:23.205Z,8.79
2023-03-04T14:07:27.291Z,8.90
2023-03-04T14:12:33.124Z,8.82
2023-03-04T14:17:37.603Z,8.72
2023-03-04T14:22:41.442Z,8.70
2023-03-04T14:27:46.444Z,8.62
2023-03-04T14:32:49.401Z,8.73
2023-03-04T14:37:56.720Z,8.84
2023-03-04T14:43:03.575Z,8.97
2023-03-04T14:48:07.942Z,9.09
2023-03-04T14:53:19.795Z,8.99
2023-03-04T14:58:26.824Z,8.90
2023-03-04T15:03:31.133Z,8.83
2023-03-04T15:08:37.346Z,8.78
2023-03-04T15:13:43.056Z,8.64
2023-03-04T15:18:55.911Z,8.55
2023-03-04T15:23:58.906Z,8.51
2023-03-04T15:29:04.991Z,8.43
2023-03-04T15:34:13.320Z,8.25
2023-03-04T15:39:16.961Z,8.13
2023-03-04T15:44:21.184Z,8.05
2023-03-04T15:49:24.266Z,7.95
2023-03-04T15:54:27.557Z,7.93
2023-03-04T15:59:31.751Z,7.93
2023-03-04T16:04:34.651Z,7.90
2023-03-04T16:09:37.467Z,7.85
2023-03-04T16:14:42.472Z,7.78
2023-03-04T16:19:45.537Z,7.73
2023-03-04T16:24:48.447Z,7.67
2023-03-04T16:29:52.672Z,7.67
2023-03-04T16:34:55.610Z,7.62
2023-03-04T16:39:58.679Z,7.53
2023-03-04T16:45:03.150Z,7.52
2023-03-04T16:50:06.520Z,7.44
2023-03-04T16:55:11.671Z,7.39
2023-03-04T17:00:18.349Z,7.39
2023-03-04T17:05:23.425Z,7.30
2023-03-04T17:10:26.850Z,7.25
2023-03-04T17:15:31.115Z,7.21
2023-03-04T17:20:34.151Z,7.16
2023-03-04T17:25:37.546Z,7.10
2023-03-04T17:30:41.802Z,7.02
2023-03-04T17:35:45.741Z,6.98
2023-03-04T17:40:48.664Z,6.92
2023-03-04T17:45:52.919Z,6.86
2023-03-04T17:50:55.899Z,6.76
2023-03-04T17:56:01.116Z,6.60
2023-03-04T18:01:07.523Z,6.45
2023-03-04T18:06:10.415Z,6.38
2023-03-04T18:11:13.642Z,6.25
2023-03-04T18:16:24.876Z,6.17
2023-03-04T18:21:28.909Z,6.12
2023-03-04T18:26:31.798Z,6.13
2023-03-04T18:31:36.903Z,6.15
2023-03-04T18:36:40.042Z,6.16
2023-03-04T18:41:42.899Z,6.03
2023-03-04T18:46:49.401Z,5.92
2023-03-04T18:51:52.707Z,5.89
2023-03-04T18:56:57.486Z,5.85
2023-03-04T19:02:03.793Z,5.85
2023-03-04T19:07:06.698Z,5.71
2023-03-04T19:12:09.608Z,5.59
2023-03-04T19:17:14.219Z,5.53
2023-03-04T19:22:17.010Z,5.42
2023-03-04T19:27:19.884Z,5.35
2023-03-04T19:32:24.327Z,5.34
2023-03-04T19:37:27.244Z,5.41
2023-03-04T19:42:30.174Z,5.43
2023-03-04T19:47:34.352Z,5.49
2023-03-04T19:52:37.343Z,5.52
2023-03-04T19:57:41.796Z,5.49
2023-03-04T20:02:48.119Z,5.52
2023-03-04T20:07:51.031Z,5.49
2023-03-04T20:12:53.856Z,5.39
2023-03-04T20:17:58.136Z,5.34
2023-03-04T20:23:00.881Z,5.27
2023-03-04T20:28:04.406Z,5.21
2023-03-04T20:33:08.560Z,5.16
2023-03-04T20:38:11.413Z,5.18
2023-03-04T20:43:14.324Z,5.19
2023-03-04T20:48:18.528Z,5.22
2023-03-04T20:53:21.392Z,5.23
2023-03-04T20:58:24.251Z,5.10
2023-03-04T21:03:29.087Z,5.02
2023-03-04T21:08:32.004Z,4.98
2023-03-04T21:13:36.928Z,4.97
2023-03-04T21:18:41.466Z,4.86
2023-03-04T21:23:44.301Z,4.75
2023-03-04T21:28:48.401Z,4.74
2023-03-04T21:33:53.306Z,4.83
2023-03-04T21:38:56.378Z,4.90
2023-03-04T21:43:59.320Z,4.93
2023-03-04T21:49:03.986Z,4.98
2023-03-04T21:54:07.742Z,4.98
2023-03-04T21:59:13.202Z,4.99
2023-03-04T22:04:17.455Z,4.95
2023-03-04T22:09:20.244Z,4.90
2023-03-04T22:14:23.153Z,4.84
2023-03-04T22:19:29.436Z,4.65
2023-03-04T22:24:32.283Z,4.56
2023-03-04T22:29:35.143Z,4.46
2023-03-04T22:34:40.112Z,4.36
2023-03-04T22:39:42.980Z,4.28
2023-03-04T22:44:45.839Z,4.21
2023-03-04T22:49:50.182Z,4.18
2023-03-04T22:54:53.124Z,4.16
2023-03-04T22:59:55.949Z,4.13
2023-03-04T23:05:00.177Z,4.09
2023-03-04T23:10:03.433Z,4.06
2023-03-04T23:15:08.119Z,4.01
2023-03-04T23:20:15.931Z,4.01
2023-03-04T23:25:18.960Z,4.07
2023-03-04T23:30:21.769Z,4.14
2023-03-04T23:35:25.986Z,4.16
2023-03-04T23:40:29.063Z,4.19
2023-03-04T23:45:33.269Z,4.14
2023-03-04T23:50:38.160Z,4.11
2023-03-04T23:55:42.886Z,4.14
